createdAt,value
2019-03-11T00:00:41.720Z,1.50
2019-03-11T00:01:46.116Z,1.60
2019-03-11T00:02:50.511Z,1.60
2019-03-11T00:03:55.186Z,1.60
2019-03-11T00:04:59.586Z,1.60
2019-03-11T00:06:04.121Z,1.70
2019-03-11T00:07:08.662Z,1.70
2019-03-11T00:08:13.177Z,1.70
2019-03-11T00:09:17.642Z,1.70
2019-03-11T00:10:22.014Z,1.70
2019-03-11T00:11:26.639Z,1.70
2019-03-11T00:12:31.152Z,1.80
2019-03-11T00:13:35.522Z,1.90
2019-03-11T00:14:39.895Z,2.00
2019-03-11T00:15:44.304Z,2.10
2019-03-11T00:16:48.873Z,2.10
2019-03-11T00:17:53.276Z,2.20
2019-03-11T00:18:57.841Z,2.30
2019-03-11T00:20:02.250Z,2.30
2019-03-11T00:21:09.490Z,2.40
2019-03-11T00:22:14.039Z,2.40
2019-03-11T00:23:18.476Z,2.50
2019-03-11T00:24:22.910Z,2.50
2019-03-11T00:25:27.308Z,2.60
2019-03-11T00:26:31.751Z,2.60
2019-03-11T00:27:36.156Z,2.60
2019-03-11T00:28:40.658Z,2.70
2019-03-11T00:29:45.191Z,2.70
2019-03-11T00:30:49.667Z,2.70
2019-03-11T00:31:54.098Z,2.70
2019-03-11T00:32:58.532Z,2.70
2019-03-11T00:34:02.937Z,2.80
2019-03-11T00:35:07.455Z,2.80
2019-03-11T00:36:11.949Z,2.90
2019-03-11T00:37:16.576Z,2.90
2019-03-11T00:38:21.104Z,3.00
2019-03-11T00:39:25.552Z,3.00
2019-03-11T00:40:29.981Z,3.10
2019-03-11T00:41:34.540Z,3.20
2019-03-11T00:42:38.960Z,3.20
2019-03-11T00:43:43.355Z,3.30
2019-03-11T00:44:47.878Z,3.30
2019-03-11T00:45:52.336Z,3.30
2019-03-11T00:46:56.651Z,3.40
2019-03-11T00:48:02.550Z,3.50
2019-03-11T00:49:07.320Z,3.50
2019-03-11T00:50:12.354Z,3.50
2019-03-11T00:51:16.733Z,3.50
2019-03-11T00:52:21.893Z,3.60
2019-03-11T00:53:26.342Z,3.60
2019-03-11T00:54:30.753Z,3.50
2019-03-11T00:55:35.205Z,3.50
2019-03-11T00:56:39.673Z,3.60
2019-03-11T00:57:44.368Z,3.60
2019-03-11T00:58:48.724Z,3.50
2019-03-11T00:59:53.060Z,3.50
2019-03-11T01:00:57.424Z,3.60
2019-03-11T01:02:01.956Z,3.60
2019-03-11T01:03:06.607Z,3.60
2019-03-11T01:04:11.022Z,3.60
2019-03-11T01:05:15.892Z,3.60
2019-03-11T01:06:20.306Z,3.60
2019-03-11T01:07:24.673Z,3.60
2019-03-11T01:08:29.263Z,3.60
2019-03-11T01:09:33.686Z,3.60
2019-03-11T01:10:38.029Z,3.60
2019-03-11T01:11:42.414Z,3.60
2019-03-11T01:12:46.966Z,3.50
2019-03-11T01:13:54.391Z,3.40
2019-03-11T01:14:58.748Z,3.30
2019-03-11T01:16:03.220Z,3.30
2019-03-11T01:17:07.738Z,3.20
2019-03-11T01:18:12.155Z,3.10
2019-03-11T01:19:16.723Z,3.10
2019-03-11T01:20:21.192Z,3.10
2019-03-11T01:21:25.615Z,3.00
2019-03-11T01:22:30.005Z,3.00
2019-03-11T01:23:34.525Z,2.90
2019-03-11T01:24:38.986Z,2.80
2019-03-11T01:25:43.373Z,2.80
2019-03-11T01:26:47.767Z,2.70
2019-03-11T01:27:52.109Z,2.60
2019-03-11T01:28:56.508Z,2.50
2019-03-11T01:30:01.004Z,2.40
2019-03-11T01:31:05.655Z,2.40
2019-03-11T01:32:10.016Z,2.40
2019-03-11T01:33:14.437Z,2.30
2019-03-11T01:34:18.983Z,2.30
2019-03-11T01:35:23.388Z,2.20
2019-03-11T01:36:27.773Z,2.20
2019-03-11T01:37:32.204Z,2.20
2019-03-11T01:38:36.753Z,2.20
2019-03-11T01:39:41.134Z,2.10
2019-03-11T01:40:45.537Z,2.10
2019-03-11T01:41:49.953Z,2.00
2019-03-11T01:42:54.344Z,1.90
2019-03-11T01:43:58.744Z,1.90
2019-03-11T01:45:03.420Z,1.90
2019-03-11T01:46:07.934Z,1.90
2019-03-11T01:47:12.297Z,1.90
2019-03-11T01:48:16.693Z,1.80
2019-03-11T01:49:23.770Z,1.80
2019-03-11T01:50:27.231Z,1.80
2019-03-11T01:51:31.690Z,1.70
2019-03-11T01:52:36.160Z,1.70
2019-03-11T01:53:40.549Z,1.70
2019-03-11T01:54:45.016Z,1.80
2019-03-11T01:55:49.399Z,1.90
2019-03-11T01:56:53.777Z,1.90
2019-03-11T01:57:58.171Z,2.00
2019-03-11T01:59:02.512Z,2.00
2019-03-11T02:00:08.920Z,2.10
2019-03-11T02:01:13.507Z,2.20
2019-03-11T02:02:18.533Z,2.30
2019-03-11T02:03:22.975Z,2.30
2019-03-11T02:04:27.355Z,2.40
2019-03-11T02:05:31.757Z,2.50
2019-03-11T02:06:36.205Z,2.50
2019-03-11T02:07:40.700Z,2.60
2019-03-11T02:08:45.112Z,2.70
2019-03-11T02:09:49.578Z,2.70
2019-03-11T02:10:53.964Z,2.80
2019-03-11T02:11:58.427Z,2.90
2019-03-11T02:13:02.775Z,2.90
2019-03-11T02:14:07.205Z,3.00
2019-03-11T02:15:12.821Z,3.10
2019-03-11T02:16:17.292Z,3.10
2019-03-11T02:17:21.609Z,3.10
2019-03-11T02:18:25.936Z,3.10
2019-03-11T02:19:30.332Z,3.20
2019-03-11T02:20:34.768Z,3.20
2019-03-11T02:21:39.104Z,3.20
2019-03-11T02:22:43.548Z,3.30
2019-03-11T02:23:47.912Z,3.20
2019-03-11T02:24:52.342Z,3.30
2019-03-11T02:25:56.775Z,3.30
2019-03-11T02:27:01.168Z,3.30
2019-03-11T02:28:05.610Z,3.20
2019-03-11T02:29:10.056Z,3.10
2019-03-11T02:30:14.481Z,3.00
2019-03-11T02:31:18.914Z,3.00
2019-03-11T02:32:23.319Z,2.90
2019-03-11T02:33:27.754Z,2.90
2019-03-11T02:34:32.205Z,2.90
2019-03-11T02:35:36.607Z,2.90
2019-03-11T02:36:44.110Z,2.90
2019-03-11T02:37:48.528Z,3.00
2019-03-11T02:38:52.927Z,3.00
2019-03-11T02:39:57.277Z,3.10
2019-03-11T02:41:01.727Z,3.10
2019-03-11T02:42:06.125Z,3.10
2019-03-11T02:43:10.538Z,3.00
2019-03-11T02:44:15.061Z,3.00
2019-03-11T02:45:19.438Z,2.90
2019-03-11T02:46:23.886Z,2.90
2019-03-11T02:47:28.276Z,2.80
2019-03-11T02:48:32.776Z,2.70
2019-03-11T02:49:37.193Z,2.70
2019-03-11T02:50:41.652Z,2.70
2019-03-11T02:51:46.052Z,2.60
2019-03-11T02:52:50.395Z,2.50
2019-03-11T02:53:54.796Z,2.50
2019-03-11T02:54:59.203Z,2.40
2019-03-11T02:56:03.639Z,2.30
2019-03-11T02:57:08.097Z,2.40
2019-03-11T02:58:12.512Z,2.30
2019-03-11T02:59:16.838Z,2.30
2019-03-11T03:00:21.288Z,2.40
2019-03-11T03:01:48.115Z,2.40
2019-03-11T03:03:09.639Z,2.50
2019-03-11T03:04:18.886Z,2.50
2019-03-11T03:05:26.507Z,2.50
2019-03-11T03:06:30.875Z,2.50
2019-03-11T03:07:35.232Z,2.50
2019-03-11T03:08:39.557Z,2.40
2019-03-11T03:09:43.952Z,2.40
2019-03-11T03:10:48.355Z,2.40
2019-03-11T03:11:52.751Z,2.30
2019-03-11T03:12:57.244Z,2.30
2019-03-11T03:14:01.676Z,2.20
2019-03-11T03:15:06.964Z,2.20
2019-03-11T03:16:11.497Z,2.20
2019-03-11T03:17:15.899Z,2.20
2019-03-11T03:18:20.288Z,2.10
2019-03-11T03:19:24.734Z,2.10
2019-03-11T03:20:29.248Z,2.10
2019-03-11T03:21:33.644Z,2.10
2019-03-11T03:22:39.077Z,2.00
2019-03-11T03:23:43.545Z,2.00
2019-03-11T03:24:47.906Z,2.00
2019-03-11T03:25:52.265Z,2.00
2019-03-11T03:26:56.622Z,2.00
2019-03-11T03:28:01.135Z,2.00
2019-03-11T03:29:08.528Z,2.00
2019-03-11T03:30:15.049Z,1.90
2019-03-11T03:31:19.463Z,1.90
2019-03-11T03:32:23.780Z,1.90
2019-03-11T03:33:28.164Z,1.90
2019-03-11T03:34:32.637Z,1.90
2019-03-11T03:35:37.024Z,1.80
2019-03-11T03:36:41.603Z,1.80
2019-03-11T03:37:46.159Z,1.80
2019-03-11T03:38:50.600Z,1.80
2019-03-11T03:39:54.973Z,1.80
2019-03-11T03:40:59.481Z,1.80
2019-03-11T03:42:04.097Z,1.80
2019-03-11T03:43:08.743Z,1.80
2019-03-11T03:44:13.223Z,1.80
2019-03-11T03:45:43.306Z,1.80
2019-03-11T03:46:47.689Z,1.70
2019-03-11T03:47:52.111Z,1.70
2019-03-11T03:48:56.817Z,1.70
2019-03-11T03:50:01.285Z,1.70
2019-03-11T03:51:05.649Z,1.70
2019-03-11T03:52:10.061Z,1.70
2019-03-11T03:53:14.507Z,1.70
2019-03-11T03:54:18.945Z,1.70
2019-03-11T03:55:23.298Z,1.70
2019-03-11T03:56:27.671Z,1.60
2019-03-11T03:57:32.190Z,1.70
2019-03-11T03:58:36.806Z,1.80
2019-03-11T03:59:41.231Z,1.70
2019-03-11T04:00:45.698Z,1.70
2019-03-11T04:01:50.022Z,1.70
2019-03-11T04:02:54.525Z,1.60
2019-03-11T04:03:58.903Z,1.70
2019-03-11T04:05:03.266Z,1.70
2019-03-11T04:06:07.603Z,1.60
2019-03-11T04:07:11.976Z,1.60
2019-03-11T04:08:16.428Z,1.70
2019-03-11T04:09:20.787Z,1.70
2019-03-11T04:10:25.172Z,1.80
2019-03-11T04:11:29.461Z,1.90
2019-03-11T04:12:34.049Z,2.00
2019-03-11T04:13:38.415Z,2.10
2019-03-11T04:14:42.778Z,2.10
2019-03-11T04:15:47.334Z,2.20
2019-03-11T04:16:51.657Z,2.20
2019-03-11T04:17:55.995Z,2.30
2019-03-11T04:19:00.405Z,2.30
2019-03-11T04:20:05.741Z,2.30
2019-03-11T04:21:12.349Z,2.40
2019-03-11T04:22:16.994Z,2.40
2019-03-11T04:23:21.341Z,2.40
2019-03-11T04:24:25.766Z,2.40
2019-03-11T04:25:31.201Z,2.50
2019-03-11T04:26:35.509Z,2.50
2019-03-11T04:27:39.848Z,2.50
2019-03-11T04:28:44.176Z,2.50
2019-03-11T04:29:48.625Z,2.60
2019-03-11T04:30:53.063Z,2.60
2019-03-11T04:31:57.400Z,2.70
2019-03-11T04:33:01.721Z,2.70
2019-03-11T04:34:06.209Z,2.80
2019-03-11T04:35:10.662Z,2.80
2019-03-11T04:36:14.969Z,2.90
2019-03-11T04:37:19.280Z,2.90
2019-03-11T04:38:23.600Z,2.90
2019-03-11T04:39:27.988Z,2.90
2019-03-11T04:40:32.369Z,2.90
2019-03-11T04:41:36.712Z,3.00
2019-03-11T04:42:41.028Z,3.00
2019-03-11T04:43:45.410Z,3.00
2019-03-11T04:44:49.727Z,3.00
2019-03-11T04:45:54.088Z,3.00
2019-03-11T04:46:58.644Z,3.00
2019-03-11T04:48:02.991Z,3.00
2019-03-11T04:49:07.415Z,3.00
2019-03-11T04:50:13.070Z,3.00
2019-03-11T04:51:17.422Z,3.00
2019-03-11T04:52:21.827Z,3.00
2019-03-11T04:53:26.145Z,3.00
2019-03-11T04:54:30.466Z,3.00
2019-03-11T04:55:34.922Z,3.00
2019-03-11T04:56:41.709Z,3.00
2019-03-11T04:57:51.937Z,3.00
2019-03-11T04:59:09.713Z,3.00
2019-03-11T05:00:16.619Z,3.10
2019-03-11T05:01:21.004Z,3.00
2019-03-11T05:02:25.385Z,3.00
2019-03-11T05:03:29.707Z,3.00
2019-03-11T05:04:34.015Z,3.00
2019-03-11T05:05:38.388Z,3.00
2019-03-11T05:06:42.699Z,3.00
2019-03-11T05:07:47.103Z,3.00
2019-03-11T05:08:51.441Z,3.00
2019-03-11T05:09:55.868Z,3.00
2019-03-11T05:11:00.266Z,2.90
2019-03-11T05:12:04.732Z,2.90
2019-03-11T05:13:09.190Z,2.90
2019-03-11T05:14:13.681Z,2.90
2019-03-11T05:15:18.011Z,2.80
2019-03-11T05:16:22.448Z,2.90
2019-03-11T05:17:26.938Z,2.90
2019-03-11T05:18:31.298Z,2.90
2019-03-11T05:19:35.797Z,2.90
2019-03-11T05:20:40.249Z,2.80
2019-03-11T05:21:44.672Z,2.80
2019-03-11T05:22:49.097Z,2.90
2019-03-11T05:23:53.566Z,2.80
2019-03-11T05:24:58.143Z,2.80
2019-03-11T05:26:02.511Z,2.80
2019-03-11T05:27:06.972Z,2.80
2019-03-11T05:28:11.380Z,2.90
2019-03-11T05:29:15.729Z,2.80
2019-03-11T05:30:20.267Z,2.80
2019-03-11T05:31:24.655Z,2.80
2019-03-11T05:32:29.089Z,2.70
2019-03-11T05:33:33.621Z,2.70
2019-03-11T05:34:38.154Z,2.70
2019-03-11T05:35:42.484Z,2.70
2019-03-11T05:36:46.866Z,2.60
2019-03-11T05:37:51.212Z,2.60
2019-03-11T05:38:55.561Z,2.70
2019-03-11T05:39:59.917Z,2.70
2019-03-11T05:41:04.304Z,2.70
2019-03-11T05:42:08.725Z,2.60
2019-03-11T05:43:13.243Z,2.60
2019-03-11T05:44:17.588Z,2.70
2019-03-11T05:45:22.073Z,2.70
2019-03-11T05:46:26.452Z,2.60
2019-03-11T05:47:30.892Z,2.60
2019-03-11T05:48:35.321Z,2.70
2019-03-11T05:49:39.765Z,2.70
2019-03-11T05:50:45.806Z,2.70
2019-03-11T05:51:51.606Z,2.70
2019-03-11T05:52:56.242Z,2.70
2019-03-11T05:54:00.584Z,2.70
2019-03-11T05:55:05.029Z,2.70
2019-03-11T05:56:09.376Z,2.80
2019-03-11T05:57:13.942Z,2.80
2019-03-11T05:58:18.652Z,2.80
2019-03-11T05:59:23.337Z,2.90
2019-03-11T06:00:29.079Z,2.90
2019-03-11T06:01:33.441Z,2.90
2019-03-11T06:02:38.175Z,3.00
2019-03-11T06:03:42.563Z,3.00
2019-03-11T06:04:47.086Z,2.90
2019-03-11T06:05:51.556Z,2.90
2019-03-11T06:06:55.978Z,2.90
2019-03-11T06:08:02.104Z,3.00
2019-03-11T06:09:07.809Z,3.00
2019-03-11T06:10:12.437Z,3.10
2019-03-11T06:11:16.756Z,3.10
2019-03-11T06:12:21.255Z,3.10
2019-03-11T06:13:35.555Z,3.10
2019-03-11T06:14:31.745Z,3.20
2019-03-11T06:15:36.121Z,3.10
2019-03-11T06:16:40.598Z,3.10
2019-03-11T06:17:45.143Z,3.20
2019-03-11T06:18:50.852Z,3.10
2019-03-11T06:20:31.740Z,3.20
2019-03-11T06:21:48.873Z,3.10
2019-03-11T06:22:53.343Z,3.10
2019-03-11T06:23:57.912Z,3.10
2019-03-11T06:25:02.681Z,3.10
2019-03-11T06:26:08.173Z,3.10
2019-03-11T06:27:12.920Z,3.10
2019-03-11T06:28:17.757Z,3.10
2019-03-11T06:29:30.142Z,3.10
2019-03-11T06:30:29.324Z,3.10
2019-03-11T06:31:33.964Z,3.10
2019-03-11T06:32:41.857Z,3.10
2019-03-11T06:33:46.902Z,3.10
2019-03-11T06:34:51.467Z,3.10
2019-03-11T06:35:56.010Z,3.00
2019-03-11T06:37:01.382Z,3.10
2019-03-11T06:38:09.380Z,3.10
2019-03-11T06:39:14.032Z,3.10
2019-03-11T06:40:18.705Z,3.10
2019-03-11T06:41:23.218Z,3.10
2019-03-11T06:42:27.856Z,3.20
2019-03-11T06:43:32.426Z,3.30
2019-03-11T06:44:37.044Z,3.30
2019-03-11T06:45:41.570Z,3.30
2019-03-11T06:46:46.275Z,3.40
2019-03-11T06:47:50.889Z,3.40
2019-03-11T06:48:55.379Z,3.40
2019-03-11T06:51:20.733Z,3.50
2019-03-11T06:52:25.257Z,3.50
2019-03-11T06:53:29.736Z,3.60
2019-03-11T06:54:34.457Z,3.70
2019-03-11T06:55:38.832Z,3.70
2019-03-11T06:56:43.497Z,3.70
2019-03-11T06:57:48.253Z,3.80
2019-03-11T06:58:52.989Z,3.90
2019-03-11T06:59:57.788Z,4.00
2019-03-11T07:01:02.548Z,4.10
2019-03-11T07:02:07.175Z,4.20
2019-03-11T07:03:11.880Z,4.10
2019-03-11T07:04:16.366Z,4.10
2019-03-11T07:05:21.279Z,4.10
2019-03-11T07:06:26.131Z,4.00
2019-03-11T07:07:30.979Z,3.90
2019-03-11T07:08:35.479Z,3.90
2019-03-11T07:09:40.323Z,3.90
2019-03-11T07:10:45.015Z,3.80
2019-03-11T07:11:49.601Z,3.70
2019-03-11T07:12:54.198Z,3.60
2019-03-11T07:13:58.916Z,3.60
2019-03-11T07:15:03.959Z,3.50
2019-03-11T07:16:09.559Z,3.50
2019-03-11T07:17:14.411Z,3.50
2019-03-11T07:18:18.944Z,3.50
2019-03-11T07:19:23.615Z,3.50
2019-03-11T07:20:28.147Z,3.50
2019-03-11T07:21:32.724Z,3.60
2019-03-11T07:22:37.431Z,3.60
2019-03-11T07:23:42.056Z,3.70
2019-03-11T07:24:46.835Z,3.70
2019-03-11T07:25:51.515Z,3.70
2019-03-11T07:26:56.026Z,3.70
2019-03-11T07:28:00.771Z,3.80
2019-03-11T07:29:05.319Z,3.90
2019-03-11T07:30:11.421Z,3.90
2019-03-11T07:31:15.992Z,3.80
2019-03-11T07:32:20.610Z,3.80
2019-03-11T07:33:25.242Z,3.70
2019-03-11T07:34:29.659Z,3.70
2019-03-11T07:35:34.210Z,3.60
2019-03-11T07:36:38.774Z,3.60
2019-03-11T07:37:43.576Z,3.60
2019-03-11T07:38:48.409Z,3.60
2019-03-11T07:39:53.206Z,3.60
2019-03-11T07:40:57.727Z,3.60
2019-03-11T07:42:02.477Z,3.60
2019-03-11T07:43:07.057Z,3.60
2019-03-11T07:44:11.690Z,3.60
2019-03-11T07:45:16.779Z,3.60
2019-03-11T07:46:21.365Z,3.50
2019-03-11T07:47:25.913Z,3.60
2019-03-11T07:48:30.438Z,3.60
2019-03-11T07:49:35.120Z,3.60
2019-03-11T07:50:42.481Z,3.60
2019-03-11T07:51:47.113Z,3.60
2019-03-11T07:52:51.863Z,3.60
2019-03-11T07:53:56.436Z,3.60
2019-03-11T07:55:01.065Z,3.60
2019-03-11T07:56:05.582Z,3.70
2019-03-11T07:57:11.263Z,3.70
2019-03-11T07:58:16.143Z,3.70
2019-03-11T07:59:20.794Z,3.70
2019-03-11T08:00:25.594Z,3.70
2019-03-11T08:01:30.721Z,3.80
2019-03-11T08:02:35.228Z,3.80
2019-03-11T08:03:40.020Z,3.80
2019-03-11T08:04:44.739Z,3.90
2019-03-11T08:05:49.234Z,3.90
2019-03-11T08:06:53.734Z,3.90
2019-03-11T08:07:58.344Z,3.90
2019-03-11T08:09:03.836Z,4.00
2019-03-11T08:10:10.030Z,4.10
2019-03-11T08:11:14.664Z,4.20
2019-03-11T08:12:19.037Z,4.20
2019-03-11T08:13:23.446Z,4.20
2019-03-11T08:14:28.064Z,4.20
2019-03-11T08:15:32.546Z,4.10
2019-03-11T08:16:37.003Z,4.10
2019-03-11T08:17:41.384Z,4.10
2019-03-11T08:18:45.922Z,3.90
2019-03-11T08:19:50.277Z,3.90
2019-03-11T08:20:54.728Z,3.70
2019-03-11T08:21:59.060Z,3.70
2019-03-11T08:23:03.686Z,3.60
2019-03-11T08:24:08.177Z,3.70
2019-03-11T08:25:13.160Z,3.60
2019-03-11T08:26:17.685Z,3.50
2019-03-11T08:27:22.059Z,3.50
2019-03-11T08:28:26.451Z,3.60
2019-03-11T08:29:30.893Z,3.60
2019-03-11T08:30:35.256Z,3.70
2019-03-11T08:31:39.989Z,3.80
2019-03-11T08:32:44.451Z,3.80
2019-03-11T08:33:48.976Z,4.00
2019-03-11T08:34:53.443Z,4.00
2019-03-11T08:35:57.849Z,4.00
2019-03-11T08:37:02.632Z,4.00
2019-03-11T08:38:07.020Z,4.00
2019-03-11T08:39:11.813Z,4.00
2019-03-11T08:40:16.169Z,4.00
2019-03-11T08:41:20.669Z,4.10
2019-03-11T08:42:25.159Z,4.10
2019-03-11T08:43:29.896Z,4.20
2019-03-11T08:44:34.383Z,4.20
2019-03-11T08:45:38.872Z,4.20
2019-03-11T08:46:46.137Z,4.20
2019-03-11T08:47:50.537Z,4.20
2019-03-11T08:48:55.073Z,4.20
2019-03-11T08:49:59.469Z,4.10
2019-03-11T08:51:03.966Z,4.20
2019-03-11T08:52:08.570Z,4.20
2019-03-11T08:53:13.145Z,4.20
2019-03-11T08:54:17.625Z,4.10
2019-03-11T08:55:22.274Z,4.10
2019-03-11T08:56:26.647Z,4.00
2019-03-11T08:57:31.178Z,4.00
2019-03-11T08:58:35.741Z,3.80
2019-03-11T08:59:40.275Z,3.80
2019-03-11T09:00:44.730Z,3.70
2019-03-11T09:01:49.158Z,3.70
2019-03-11T09:02:53.652Z,3.70
2019-03-11T09:03:58.058Z,3.60
2019-03-11T09:05:02.460Z,3.60
2019-03-11T09:06:06.904Z,3.70
2019-03-11T09:07:11.569Z,3.70
2019-03-11T09:08:16.012Z,3.70
2019-03-11T09:09:20.467Z,3.70
2019-03-11T09:10:24.871Z,3.80
2019-03-11T09:11:29.451Z,3.80
2019-03-11T09:12:34.059Z,3.80
2019-03-11T09:13:38.491Z,3.90
2019-03-11T09:14:42.962Z,3.80
2019-03-11T09:15:47.510Z,3.80
2019-03-11T09:16:51.931Z,3.80
2019-03-11T09:17:56.566Z,3.90
2019-03-11T09:19:00.990Z,4.00
2019-03-11T09:20:05.772Z,4.10
2019-03-11T09:21:10.261Z,4.20
2019-03-11T09:22:14.815Z,4.40
2019-03-11T09:23:19.322Z,4.40
2019-03-11T09:24:23.777Z,4.50
2019-03-11T09:25:28.442Z,4.50
2019-03-11T09:26:32.936Z,4.50
2019-03-11T09:27:37.399Z,4.40
2019-03-11T09:28:42.242Z,4.30
2019-03-11T09:29:46.637Z,4.20
2019-03-11T09:30:51.209Z,4.20
2019-03-11T09:31:55.896Z,4.10
2019-03-11T09:33:00.315Z,4.10
2019-03-11T09:34:04.711Z,4.10
2019-03-11T09:35:09.287Z,4.00
2019-03-11T09:36:16.706Z,4.00
2019-03-11T09:37:21.172Z,4.00
2019-03-11T09:38:25.566Z,3.90
2019-03-11T09:39:29.994Z,4.00
2019-03-11T09:40:34.492Z,3.90
2019-03-11T09:41:39.012Z,3.90
2019-03-11T09:42:45.746Z,3.90
2019-03-11T09:43:50.681Z,3.90
2019-03-11T09:44:55.165Z,4.00
2019-03-11T09:45:59.722Z,4.00
2019-03-11T09:47:04.156Z,4.10
2019-03-11T09:48:08.715Z,4.10
2019-03-11T09:49:13.374Z,4.10
2019-03-11T09:50:17.946Z,4.10
2019-03-11T09:51:22.998Z,4.10
2019-03-11T09:52:27.396Z,4.20
2019-03-11T09:53:31.953Z,4.30
2019-03-11T09:54:36.328Z,4.20
2019-03-11T09:55:40.989Z,4.40
2019-03-11T09:56:46.697Z,4.40
2019-03-11T09:57:51.320Z,4.40
2019-03-11T09:58:55.895Z,4.50
2019-03-11T10:00:00.534Z,4.60
2019-03-11T10:01:05.393Z,4.70
2019-03-11T10:02:12.462Z,4.80
2019-03-11T10:03:15.979Z,5.00
2019-03-11T10:04:20.509Z,5.20
2019-03-11T10:05:24.968Z,5.40
2019-03-11T10:06:29.502Z,5.50
2019-03-11T10:07:34.063Z,5.70
2019-03-11T10:08:38.592Z,5.70
2019-03-11T10:09:43.022Z,5.70
2019-03-11T10:10:48.874Z,5.80
2019-03-11T10:11:53.337Z,5.70
2019-03-11T10:12:57.788Z,5.70
2019-03-11T10:14:02.348Z,5.60
2019-03-11T10:15:08.362Z,5.50
2019-03-11T10:16:13.199Z,5.50
2019-03-11T10:17:17.625Z,5.60
2019-03-11T10:18:22.045Z,5.60
2019-03-11T10:19:26.449Z,5.70
2019-03-11T10:20:30.919Z,5.70
2019-03-11T10:21:35.457Z,5.80
2019-03-11T10:22:39.926Z,5.70
2019-03-11T10:23:44.322Z,5.60
2019-03-11T10:24:48.869Z,5.60
2019-03-11T10:25:53.384Z,5.60
2019-03-11T10:26:57.965Z,5.50
2019-03-11T10:28:02.477Z,5.40
2019-03-11T10:29:07.231Z,5.30
2019-03-11T10:30:13.477Z,5.10
2019-03-11T10:31:17.897Z,5.00
2019-03-11T10:32:22.237Z,5.10
2019-03-11T10:33:26.807Z,5.00
2019-03-11T10:34:31.219Z,5.00
2019-03-11T10:35:35.658Z,5.00
2019-03-11T10:36:40.100Z,5.00
2019-03-11T10:37:44.891Z,5.00
2019-03-11T10:38:49.423Z,4.90
2019-03-11T10:39:54.018Z,5.00
2019-03-11T10:40:58.477Z,5.00
2019-03-11T10:42:02.873Z,5.00
2019-03-11T10:43:07.411Z,5.00
2019-03-11T10:44:12.456Z,5.10
2019-03-11T10:45:16.971Z,5.30
2019-03-11T10:46:21.451Z,5.30
2019-03-11T10:47:26.006Z,5.40
2019-03-11T10:48:37.235Z,5.50
2019-03-11T10:49:36.695Z,5.60
2019-03-11T10:50:41.195Z,5.70
2019-03-11T10:51:45.613Z,5.70
2019-03-11T10:52:50.517Z,5.70
2019-03-11T10:53:55.142Z,5.70
2019-03-11T10:54:59.645Z,5.70
2019-03-11T10:56:04.116Z,5.60
2019-03-11T10:57:08.889Z,5.60
2019-03-11T10:58:14.039Z,5.60
2019-03-11T10:59:18.562Z,5.70
2019-03-11T11:00:24.571Z,5.70
2019-03-11T11:01:29.295Z,5.80
2019-03-11T11:02:33.978Z,5.90
2019-03-11T11:03:38.543Z,6.00
2019-03-11T11:04:43.152Z,6.10
2019-03-11T11:05:47.781Z,6.10
2019-03-11T11:06:52.475Z,6.20
2019-03-11T11:07:56.896Z,6.30
2019-03-11T11:09:01.329Z,6.30
2019-03-11T11:10:06.186Z,6.40
2019-03-11T11:11:10.921Z,6.20
2019-03-11T11:12:15.615Z,6.30
2019-03-11T11:13:19.997Z,6.20
2019-03-11T11:14:24.601Z,6.20
2019-03-11T11:15:29.116Z,6.20
2019-03-11T11:16:33.601Z,6.30
2019-03-11T11:17:38.161Z,6.40
2019-03-11T11:18:42.940Z,6.50
2019-03-11T11:19:47.764Z,6.60
2019-03-11T11:20:52.184Z,6.60
2019-03-11T11:21:56.655Z,6.70
2019-03-11T11:23:01.108Z,6.80
2019-03-11T11:24:05.509Z,6.90
2019-03-11T11:25:11.897Z,7.00
2019-03-11T11:26:16.391Z,7.00
2019-03-11T11:27:20.924Z,7.00
2019-03-11T11:28:25.588Z,7.00
2019-03-11T11:29:30.107Z,6.90
2019-03-11T11:30:34.674Z,7.00
2019-03-11T11:31:39.310Z,7.00
2019-03-11T11:32:43.872Z,7.10
2019-03-11T11:33:48.415Z,7.10
2019-03-11T11:34:52.928Z,7.30
2019-03-11T11:35:57.382Z,7.40
2019-03-11T11:37:01.924Z,7.40
2019-03-11T11:38:06.457Z,7.50
2019-03-11T11:39:12.788Z,7.40
2019-03-11T11:40:19.152Z,7.30
2019-03-11T11:41:23.766Z,7.30
2019-03-11T11:42:28.154Z,7.30
2019-03-11T11:43:32.667Z,7.30
2019-03-11T11:44:37.292Z,7.30
2019-03-11T11:45:41.780Z,7.30
2019-03-11T11:46:46.365Z,7.20
2019-03-11T11:47:51.046Z,7.20
2019-03-11T11:48:55.446Z,7.20
2019-03-11T11:49:59.839Z,7.10
2019-03-11T11:51:04.248Z,7.10
2019-03-11T11:52:08.700Z,7.10
2019-03-11T11:53:13.311Z,7.10
2019-03-11T11:54:17.700Z,7.10
2019-03-11T11:55:22.275Z,7.10
2019-03-11T11:56:26.870Z,7.10
2019-03-11T11:57:31.285Z,7.10
2019-03-11T11:58:35.699Z,7.00
2019-03-11T11:59:40.027Z,7.00
2019-03-11T12:00:45.817Z,7.10
2019-03-11T12:02:03.835Z,7.10
2019-03-11T12:03:02.884Z,7.30
2019-03-11T12:04:07.413Z,7.50
2019-03-11T12:05:12.857Z,7.60
2019-03-11T12:06:17.469Z,7.60
2019-03-11T12:07:21.995Z,7.60
2019-03-11T12:08:26.577Z,7.50
2019-03-11T12:09:31.054Z,7.30
2019-03-11T12:10:35.526Z,7.20
2019-03-11T12:11:40.030Z,7.00
2019-03-11T12:12:44.566Z,6.90
2019-03-11T12:13:49.017Z,6.80
2019-03-11T12:14:53.535Z,6.70
2019-03-11T12:15:58.016Z,6.50
2019-03-11T12:17:02.371Z,6.40
2019-03-11T12:18:06.863Z,6.30
2019-03-11T12:19:11.707Z,6.20
2019-03-11T12:20:19.001Z,6.10
2019-03-11T12:21:23.510Z,5.90
2019-03-11T12:22:27.874Z,5.80
2019-03-11T12:23:32.253Z,5.60
2019-03-11T12:24:36.681Z,5.40
2019-03-11T12:25:41.010Z,5.40
2019-03-11T12:26:46.212Z,5.30
2019-03-11T12:27:54.198Z,5.30
2019-03-11T12:28:57.510Z,5.40
2019-03-11T12:30:02.042Z,5.40
2019-03-11T12:31:06.638Z,5.50
2019-03-11T12:32:11.140Z,5.60
2019-03-11T12:33:15.748Z,5.80
2019-03-11T12:34:20.346Z,6.00
2019-03-11T12:35:24.956Z,6.10
2019-03-11T12:36:29.564Z,6.30
2019-03-11T12:37:34.018Z,6.40
2019-03-11T12:38:38.557Z,6.40
2019-03-11T12:39:43.218Z,6.50
2019-03-11T12:40:47.694Z,6.50
2019-03-11T12:41:52.240Z,6.50
2019-03-11T12:42:56.615Z,6.60
2019-03-11T12:44:00.953Z,6.70
2019-03-11T12:45:06.275Z,6.80
2019-03-11T12:46:10.841Z,7.00
2019-03-11T12:47:15.210Z,7.10
2019-03-11T12:48:19.628Z,7.20
2019-03-11T12:49:24.181Z,7.30
2019-03-11T12:50:28.752Z,7.40
2019-03-11T12:51:33.349Z,7.50
2019-03-11T12:52:37.901Z,7.50
2019-03-11T12:53:42.403Z,7.60
2019-03-11T12:54:47.262Z,7.60
2019-03-11T12:55:51.745Z,7.60
2019-03-11T12:56:56.158Z,7.50
2019-03-11T12:58:00.593Z,7.50
2019-03-11T12:59:05.137Z,7.40
2019-03-11T13:00:11.208Z,7.20
2019-03-11T13:01:15.805Z,7.10
2019-03-11T13:02:20.442Z,7.00
2019-03-11T13:03:24.882Z,7.00
2019-03-11T13:04:29.239Z,6.90
2019-03-11T13:05:33.713Z,6.80
2019-03-11T13:06:38.137Z,6.80
2019-03-11T13:07:42.632Z,6.70
2019-03-11T13:08:48.691Z,6.60
2019-03-11T13:09:53.165Z,6.60
2019-03-11T13:10:57.660Z,6.50
2019-03-11T13:12:02.126Z,6.40
2019-03-11T13:13:06.750Z,6.40
2019-03-11T13:14:12.571Z,6.50
2019-03-11T13:15:17.423Z,6.50
2019-03-11T13:16:21.886Z,6.60
2019-03-11T13:17:26.396Z,6.80
2019-03-11T13:18:38.509Z,6.90
2019-03-11T13:19:42.899Z,7.00
2019-03-11T13:20:49.911Z,7.10
2019-03-11T13:21:54.584Z,7.20
2019-03-11T13:22:59.007Z,7.30
2019-03-11T13:24:03.631Z,7.30
2019-03-11T13:25:08.419Z,7.30
2019-03-11T13:26:12.967Z,7.20
2019-03-11T13:27:17.540Z,7.20
2019-03-11T13:28:22.059Z,7.10
2019-03-11T13:29:26.449Z,7.20
2019-03-11T13:30:31.094Z,7.10
2019-03-11T13:31:35.613Z,7.10
2019-03-11T13:32:40.058Z,7.10
2019-03-11T13:33:44.849Z,7.00
2019-03-11T13:34:49.359Z,7.00
2019-03-11T13:35:53.871Z,6.90
2019-03-11T13:36:58.385Z,6.80
2019-03-11T13:38:02.853Z,6.80
2019-03-11T13:39:08.149Z,6.80
2019-03-11T13:40:12.825Z,6.80
2019-03-11T13:41:17.459Z,6.80
2019-03-11T13:42:22.076Z,6.60
2019-03-11T13:43:26.676Z,6.50
2019-03-11T13:44:31.200Z,6.50
2019-03-11T13:45:35.733Z,6.50
2019-03-11T13:46:40.151Z,6.40
2019-03-11T13:47:44.906Z,6.30
2019-03-11T13:48:49.337Z,6.30
2019-03-11T13:49:53.955Z,6.20
2019-03-11T13:50:58.448Z,6.20
2019-03-11T13:52:02.882Z,6.20
2019-03-11T13:53:07.322Z,6.30
2019-03-11T13:54:11.863Z,6.30
2019-03-11T13:55:16.801Z,6.40
2019-03-11T13:56:21.179Z,6.50
2019-03-11T13:57:25.517Z,6.60
2019-03-11T13:58:29.922Z,6.70
2019-03-11T13:59:34.377Z,6.90
2019-03-11T14:00:38.743Z,6.90
2019-03-11T14:01:43.159Z,7.10
2019-03-11T14:02:47.885Z,7.10
2019-03-11T14:03:52.439Z,7.20
2019-03-11T14:04:56.974Z,7.10
2019-03-11T14:06:01.342Z,7.20
2019-03-11T14:07:06.057Z,7.20
2019-03-11T14:08:10.457Z,7.20
2019-03-11T14:09:15.137Z,7.20
2019-03-11T14:10:19.596Z,7.10
2019-03-11T14:11:23.968Z,7.20
2019-03-11T14:12:28.456Z,7.20
2019-03-11T14:13:33.011Z,7.20
2019-03-11T14:14:37.409Z,7.30
2019-03-11T14:15:41.836Z,7.40
2019-03-11T14:16:49.110Z,7.50
2019-03-11T14:17:53.562Z,7.60
2019-03-11T14:18:58.058Z,7.60
2019-03-11T14:20:02.414Z,7.60
2019-03-11T14:21:06.890Z,7.60
2019-03-11T14:22:11.354Z,7.60
2019-03-11T14:23:15.817Z,7.80
2019-03-11T14:24:20.197Z,7.80